sensor_id;sensor_type;location;lat;lon;timestamp;pressure;altitude;pressure_sealevel;temperature;humidity
71621;BME280;59471;42.254;23.102;2023-05-21T00:01:33;95626.69;;;14.71;68.62
71621;BME280;59471;42.254;23.102;2023-05-21T00:03:58;95625.03;;;14.83;68.05
71621;BME280;59471;42.254;23.102;2023-05-21T00:06:24;95620.59;;;14.77;68.83
71621;BME280;59471;42.254;23.102;2023-05-21T00:08:50;95621.75;;;14.88;68.99
71621;BME280;59471;42.254;23.102;2023-05-21T00:11:16;95627.03;;;14.88;69.18
71621;BME280;59471;42.254;23.102;2023-05-21T00:13:41;95622.56;;;14.95;68.75
71621;BME280;59471;42.254;23.102;2023-05-21T00:16:07;95621.34;;;14.84;69.16
71621;BME280;59471;42.254;23.102;2023-05-21T00:18:35;95618.50;;;14.92;69.36
71621;BME280;59471;42.254;23.102;2023-05-21T00:21:03;95618.97;;;14.76;69.82
71621;BME280;59471;42.254;23.102;2023-05-21T00:23:29;95620.59;;;14.77;70.04
71621;BME280;59471;42.254;23.102;2023-05-21T00:25:57;95619.38;;;14.73;70.15
71621;BME280;59471;42.254;23.102;2023-05-21T00:28:23;95626.28;;;14.74;70.68
71621;BME280;59471;42.254;23.102;2023-05-21T00:30:49;95614.69;;;14.75;70.34
71621;BME280;59471;42.254;23.102;2023-05-21T00:33:15;95618.03;;;14.57;71.00
71621;BME280;59471;42.254;23.102;2023-05-21T00:35:40;95613.72;;;14.63;71.33
71621;BME280;59471;42.254;23.102;2023-05-21T00:38:06;95609.69;;;14.67;70.62
71621;BME280;59471;42.254;23.102;2023-05-21T00:40:33;95613.50;;;14.71;70.40
71621;BME280;59471;42.254;23.102;2023-05-21T00:43:00;95621.63;;;14.76;70.42
71621;BME280;59471;42.254;23.102;2023-05-21T00:45:26;95606.00;;;14.74;70.35
71621;BME280;59471;42.254;23.102;2023-05-21T00:47:52;95604.25;;;14.42;71.43
71621;BME280;59471;42.254;23.102;2023-05-21T00:50:21;95601.38;;;14.50;71.14
71621;BME280;59471;42.254;23.102;2023-05-21T00:52:47;95602.41;;;14.55;70.96
71621;BME280;59471;42.254;23.102;2023-05-21T00:55:14;95599.19;;;14.53;70.84
71621;BME280;59471;42.254;23.102;2023-05-21T00:57:39;95597.13;;;14.55;70.50
71621;BME280;59471;42.254;23.102;2023-05-21T01:00:06;95588.03;;;14.51;70.78
71621;BME280;59471;42.254;23.102;2023-05-21T01:02:34;95593.91;;;14.60;70.58
71621;BME280;59471;42.254;23.102;2023-05-21T01:05:02;95586.00;;;14.53;70.61
71621;BME280;59471;42.254;23.102;2023-05-21T01:07:37;95594.72;;;14.47;70.64
71621;BME280;59471;42.254;23.102;2023-05-21T01:10:04;95593.91;;;14.53;70.70
71621;BME280;59471;42.254;23.102;2023-05-21T01:12:32;95597.50;;;14.66;70.54
71621;BME280;59471;42.254;23.102;2023-05-21T01:15:00;95596.75;;;14.45;71.18
71621;BME280;59471;42.254;23.102;2023-05-21T01:17:28;95593.13;;;14.33;72.12
71621;BME280;59471;42.254;23.102;2023-05-21T01:19:57;95592.75;;;14.23;72.60
71621;BME280;59471;42.254;23.102;2023-05-21T01:22:23;95589.09;;;14.24;72.25
71621;BME280;59471;42.254;23.102;2023-05-21T01:24:50;95591.53;;;14.05;73.28
71621;BME280;59471;42.254;23.102;2023-05-21T01:27:15;95585.50;;;13.91;73.63
71621;BME280;59471;42.254;23.102;2023-05-21T01:29:41;95578.22;;;14.00;73.16
71621;BME280;59471;42.254;23.102;2023-05-21T01:32:27;95577.38;;;14.06;72.95
71621;BME280;59471;42.254;23.102;2023-05-21T01:35:03;95583.66;;;13.92;73.89
71621;BME280;59471;42.254;23.102;2023-05-21T01:37:43;95575.38;;;13.82;74.35
71621;BME280;59471;42.254;23.102;2023-05-21T01:43:07;95578.81;;;13.29;75.72
71621;BME280;59471;42.254;23.102;2023-05-21T01:45:35;95576.97;;;13.30;75.49
71621;BME280;59471;42.254;23.102;2023-05-21T01:48:05;95586.03;;;13.14;76.07
71621;BME280;59471;42.254;23.102;2023-05-21T01:50:33;95581.16;;;13.11;75.86
71621;BME280;59471;42.254;23.102;2023-05-21T01:52:59;95579.94;;;12.93;76.16
71621;BME280;59471;42.254;23.102;2023-05-21T01:55:27;95577.63;;;12.70;77.29
71621;BME280;59471;42.254;23.102;2023-05-21T01:57:55;95571.03;;;12.40;78.58
71621;BME280;59471;42.254;23.102;2023-05-21T02:00:23;95566.44;;;12.48;78.51
71621;BME280;59471;42.254;23.102;2023-05-21T02:02:52;95567.78;;;12.38;78.59
71621;BME280;59471;42.254;23.102;2023-05-21T02:05:18;95566.63;;;12.47;78.56
71621;BME280;59471;42.254;23.102;2023-05-21T02:07:44;95568.19;;;12.35;79.06
71621;BME280;59471;42.254;23.102;2023-05-21T02:10:11;95556.53;;;12.50;78.53
71621;BME280;59471;42.254;23.102;2023-05-21T02:12:37;95562.66;;;12.64;78.25
71621;BME280;59471;42.254;23.102;2023-05-21T02:15:03;95558.38;;;12.63;77.38
71621;BME280;59471;42.254;23.102;2023-05-21T02:17:30;95565.75;;;12.88;76.65
71621;BME280;59471;42.254;23.102;2023-05-21T02:20:01;95560.13;;;13.04;76.35
71621;BME280;59471;42.254;23.102;2023-05-21T02:25:04;95551.53;;;13.37;74.96
71621;BME280;59471;42.254;23.102;2023-05-21T02:27:31;95558.38;;;13.71;73.56
71621;BME280;59471;42.254;23.102;2023-05-21T02:29:59;95550.31;;;13.59;73.71
71621;BME280;59471;42.254;23.102;2023-05-21T02:32:25;95558.38;;;13.44;74.90
71621;BME280;59471;42.254;23.102;2023-05-21T02:34:51;95557.19;;;13.34;75.06
71621;BME280;59471;42.254;23.102;2023-05-21T02:37:18;95562.63;;;13.45;75.38
71621;BME280;59471;42.254;23.102;2023-05-21T02:39:44;95557.50;;;13.11;76.19
71621;BME280;59471;42.254;23.102;2023-05-21T02:42:10;95561.31;;;12.88;77.64
71621;BME280;59471;42.254;23.102;2023-05-21T02:44:35;95568.31;;;12.68;78.47
71621;BME280;59471;42.254;23.102;2023-05-21T02:47:01;95562.69;;;12.78;77.76
71621;BME280;59471;42.254;23.102;2023-05-21T02:49:26;95565.53;;;12.83;77.30
71621;BME280;59471;42.254;23.102;2023-05-21T02:51:52;95565.91;;;12.80;78.21
71621;BME280;59471;42.254;23.102;2023-05-21T02:54:17;95565.78;;;11.98;82.04
71621;BME280;59471;42.254;23.102;2023-05-21T02:56:43;95565.25;;;12.16;81.12
71621;BME280;59471;42.254;23.102;2023-05-21T02:59:08;95567.13;;;12.70;77.28
71621;BME280;59471;42.254;23.102;2023-05-21T03:01:34;95565.47;;;12.63;79.17
71621;BME280;59471;42.254;23.102;2023-05-21T03:03:59;95566.31;;;12.76;78.55
71621;BME280;59471;42.254;23.102;2023-05-21T03:06:25;95569.75;;;12.70;78.69
71621;BME280;59471;42.254;23.102;2023-05-21T03:08:50;95566.19;;;12.37;80.35
71621;BME280;59471;42.254;23.102;2023-05-21T03:11:18;95571.91;;;12.53;80.05
71621;BME280;59471;42.254;23.102;2023-05-21T03:13:44;95567.16;;;12.36;80.18
71621;BME280;59471;42.254;23.102;2023-05-21T03:16:10;95567.44;;;12.54;79.95
71621;BME280;59471;42.254;23.102;2023-05-21T03:18:36;95570.38;;;12.79;78.81
71621;BME280;59471;42.254;23.102;2023-05-21T03:21:01;95567.38;;;12.89;77.24
71621;BME280;59471;42.254;23.102;2023-05-21T03:23:28;95574.03;;;12.85;77.02
71621;BME280;59471;42.254;23.102;2023-05-21T03:25:54;95569.41;;;12.39;78.77
71621;BME280;59471;42.254;23.102;2023-05-21T03:28:19;95570.94;;;12.61;77.51
71621;BME280;59471;42.254;23.102;2023-05-21T03:30:45;95574.44;;;12.82;78.24
71621;BME280;59471;42.254;23.102;2023-05-21T03:33:14;95567.97;;;12.84;78.76
71621;BME280;59471;42.254;23.102;2023-05-21T03:35:40;95581.28;;;12.83;79.00
71621;BME280;59471;42.254;23.102;2023-05-21T03:38:06;95574.47;;;12.95;78.84
71621;BME280;59471;42.254;23.102;2023-05-21T03:40:31;95582.16;;;12.90;78.14
71621;BME280;59471;42.254;23.102;2023-05-21T03:42:57;95578.09;;;12.87;78.22
71621;BME280;59471;42.254;23.102;2023-05-21T03:45:22;95580.97;;;12.99;77.55
71621;BME280;59471;42.254;23.102;2023-05-21T03:47:48;95575.50;;;13.01;76.64
71621;BME280;59471;42.254;23.102;2023-05-21T03:50:13;95565.59;;;12.96;76.64
71621;BME280;59471;42.254;23.102;2023-05-21T03:52:39;95573.22;;;12.84;77.90
71621;BME280;59471;42.254;23.102;2023-05-21T03:55:05;95573.28;;;13.17;76.92
71621;BME280;59471;42.254;23.102;2023-05-21T03:57:30;95569.03;;;13.03;77.08
71621;BME280;59471;42.254;23.102;2023-05-21T03:59:56;95568.03;;;13.17;77.13
71621;BME280;59471;42.254;23.102;2023-05-21T04:02:24;95578.22;;;13.47;76.41
71621;BME280;59471;42.254;23.102;2023-05-21T04:04:51;95574.97;;;13.32;76.75
71621;BME280;59471;42.254;23.102;2023-05-21T04:07:18;95576.19;;;13.36;76.84
71621;BME280;59471;42.254;23.102;2023-05-21T04:09:44;95563.66;;;13.38;77.65
71621;BME280;59471;42.254;23.102;2023-05-21T04:12:10;95568.50;;;13.41;74.94
71621;BME280;59471;42.254;23.102;2023-05-21T04:14:36;95577.81;;;13.63;75.44
71621;BME280;59471;42.254;23.102;2023-05-21T04:17:04;95574.78;;;13.40;74.99
71621;BME280;59471;42.254;23.102;2023-05-21T04:19:31;95573.38;;;13.44;76.30
71621;BME280;59471;42.254;23.102;2023-05-21T04:21:57;95575.78;;;13.52;74.78
71621;BME280;59471;42.254;23.102;2023-05-21T04:24:23;95577.41;;;13.73;74.60
71621;BME280;59471;42.254;23.102;2023-05-21T04:26:49;95568.50;;;13.74;74.09
71621;BME280;59471;42.254;23.102;2023-05-21T04:29:15;95581.47;;;13.76;75.14
71621;BME280;59471;42.254;23.102;2023-05-21T04:31:47;95584.25;;;14.14;73.03
71621;BME280;59471;42.254;23.102;2023-05-21T04:34:13;95589.50;;;14.21;73.26
71621;BME280;59471;42.254;23.102;2023-05-21T04:36:42;95573.31;;;14.17;71.96
71621;BME280;59471;42.254;23.102;2023-05-21T04:39:10;95570.22;;;14.33;71.24
71621;BME280;59471;42.254;23.102;2023-05-21T04:41:37;95574.88;;;14.38;70.28
71621;BME280;59471;42.254;23.102;2023-05-21T04:44:05;95573.84;;;14.52;70.12
71621;BME280;59471;42.254;23.102;2023-05-21T04:46:31;95569.19;;;14.54;69.96
71621;BME280;59471;42.254;23.102;2023-05-21T04:48:57;95581.69;;;14.66;70.28
71621;BME280;59471;42.254;23.102;2023-05-21T04:51:27;95575.47;;;14.53;71.48
71621;BME280;59471;42.254;23.102;2023-05-21T04:53:53;95572.00;;;14.46;71.68
71621;BME280;59471;42.254;23.102;2023-05-21T04:56:18;95580.97;;;14.32;73.62
71621;BME280;59471;42.254;23.102;2023-05-21T04:58:44;95577.72;;;14.30;73.75
71621;BME280;59471;42.254;23.102;2023-05-21T05:01:12;95580.50;;;14.48;74.16
71621;BME280;59471;42.254;23.102;2023-05-21T05:03:37;95581.53;;;14.60;71.82
71621;BME280;59471;42.254;23.102;2023-05-21T05:06:03;95571.56;;;14.69;70.72
71621;BME280;59471;42.254;23.102;2023-05-21T05:08:29;95580.16;;;14.31;72.92
71621;BME280;59471;42.254;23.102;2023-05-21T05:10:54;95567.09;;;14.70;70.89
71621;BME280;59471;42.254;23.102;2023-05-21T05:13:20;95578.44;;;15.09;70.96
71621;BME280;59471;42.254;23.102;2023-05-21T05:15:45;95574.78;;;15.10;71.26
71621;BME280;59471;42.254;23.102;2023-05-21T05:18:11;95567.72;;;15.03;71.25
71621;BME280;59471;42.254;23.102;2023-05-21T05:20:37;95570.78;;;15.00;72.14
71621;BME280;59471;42.254;23.102;2023-05-21T05:23:03;95564.75;;;15.25;70.63
71621;BME280;59471;42.254;23.102;2023-05-21T05:25:28;95559.47;;;15.25;71.24
71621;BME280;59471;42.254;23.102;2023-05-21T05:27:54;95561.50;;;14.33;75.04
71621;BME280;59471;42.254;23.102;2023-05-21T05:30:19;95571.47;;;14.18;76.85
71621;BME280;59471;42.254;23.102;2023-05-21T05:32:45;95568.44;;;14.21;77.52
71621;BME280;59471;42.254;23.102;2023-05-21T05:35:10;95569.28;;;14.01;77.67
71621;BME280;59471;42.254;23.102;2023-05-21T05:37:37;95575.00;;;13.78;79.01
71621;BME280;59471;42.254;23.102;2023-05-21T05:40:03;95567.66;;;14.13;77.87
71621;BME280;59471;42.254;23.102;2023-05-21T05:42:30;95572.94;;;14.07;78.20
71621;BME280;59471;42.254;23.102;2023-05-21T05:44:56;95563.94;;;14.41;77.00
71621;BME280;59471;42.254;23.102;2023-05-21T05:47:21;95555.88;;;14.23;77.75
71621;BME280;59471;42.254;23.102;2023-05-21T05:49:47;95568.91;;;13.91;79.71
71621;BME280;59471;42.254;23.102;2023-05-21T05:52:12;95571.69;;;14.23;78.52
71621;BME280;59471;42.254;23.102;2023-05-21T05:54:38;95558.97;;;14.00;78.82
71621;BME280;59471;42.254;23.102;2023-05-21T05:57:04;95554.63;;;14.32;78.07
71621;BME280;59471;42.254;23.102;2023-05-21T05:59:29;95559.34;;;14.75;76.61
71621;BME280;59471;42.254;23.102;2023-05-21T06:01:55;95549.19;;;14.85;75.83
71621;BME280;59471;42.254;23.102;2023-05-21T06:04:20;95549.19;;;14.85;75.71
71621;BME280;59471;42.254;23.102;2023-05-21T06:06:46;95537.97;;;14.51;76.80
71621;BME280;59471;42.254;23.102;2023-05-21T06:09:12;95555.63;;;14.89;76.59
71621;BME280;59471;42.254;23.102;2023-05-21T06:11:38;95548.38;;;14.78;76.54
71621;BME280;59471;42.254;23.102;2023-05-21T06:14:03;95540.06;;;15.13;76.88
71621;BME280;59471;42.254;23.102;2023-05-21T06:16:29;95538.00;;;15.21;76.52
71621;BME280;59471;42.254;23.102;2023-05-21T06:18:57;95541.81;;;15.50;75.76
71621;BME280;59471;42.254;23.102;2023-05-21T06:21:23;95537.97;;;15.78;74.79
71621;BME280;59471;42.254;23.102;2023-05-21T06:23:49;95529.50;;;16.13;71.77
71621;BME280;59471;42.254;23.102;2023-05-21T06:26:14;95524.25;;;16.31;70.49
71621;BME280;59471;42.254;23.102;2023-05-21T06:28:40;95523.44;;;16.49;68.36
71621;BME280;59471;42.254;23.102;2023-05-21T06:31:05;95508.66;;;16.60;69.26
71621;BME280;59471;42.254;23.102;2023-05-21T06:33:31;95532.16;;;16.31;68.39
71621;BME280;59471;42.254;23.102;2023-05-21T06:35:57;95523.75;;;16.71;63.88
71621;BME280;59471;42.254;23.102;2023-05-21T06:38:22;95515.69;;;16.84;63.19
71621;BME280;59471;42.254;23.102;2023-05-21T06:40:48;95515.84;;;17.01;64.16
71621;BME280;59471;42.254;23.102;2023-05-21T06:43:14;95519.38;;;17.25;63.96
71621;BME280;59471;42.254;23.102;2023-05-21T06:45:39;95514.91;;;17.37;66.39
71621;BME280;59471;42.254;23.102;2023-05-21T06:48:05;95514.56;;;17.34;66.68
71621;BME280;59471;42.254;23.102;2023-05-21T06:50:30;95503.53;;;17.72;61.61
71621;BME280;59471;42.254;23.102;2023-05-21T06:52:56;95503.56;;;17.96;55.30
71621;BME280;59471;42.254;23.102;2023-05-21T06:55:22;95501.44;;;18.33;55.21
71621;BME280;59471;42.254;23.102;2023-05-21T06:57:47;95509.38;;;18.45;53.46
71621;BME280;59471;42.254;23.102;2023-05-21T07:00:13;95503.06;;;18.63;51.74
71621;BME280;59471;42.254;23.102;2023-05-21T07:02:39;95493.59;;;18.79;51.48
71621;BME280;59471;42.254;23.102;2023-05-21T07:05:04;95484.69;;;18.85;51.93
71621;BME280;59471;42.254;23.102;2023-05-21T07:07:30;95496.13;;;18.85;51.16
71621;BME280;59471;42.254;23.102;2023-05-21T07:09:56;95489.91;;;18.80;50.03
71621;BME280;59471;42.254;23.102;2023-05-21T07:12:21;95475.75;;;18.91;49.19
71621;BME280;59471;42.254;23.102;2023-05-21T07:14:47;95470.34;;;19.14;47.86
71621;BME280;59471;42.254;23.102;2023-05-21T07:17:12;95472.69;;;19.28;49.08
71621;BME280;59471;42.254;23.102;2023-05-21T07:19:38;95465.69;;;19.55;47.53
71621;BME280;59471;42.254;23.102;2023-05-21T07:22:04;95466.81;;;19.59;47.00
71621;BME280;59471;42.254;23.102;2023-05-21T07:24:30;95465.19;;;19.25;47.35
71621;BME280;59471;42.254;23.102;2023-05-21T07:26:56;95469.06;;;19.17;46.82
71621;BME280;59471;42.254;23.102;2023-05-21T07:29:21;95478.69;;;19.06;46.98
71621;BME280;59471;42.254;23.102;2023-05-21T07:31:47;95477.56;;;19.02;46.76
71621;BME280;59471;42.254;23.102;2023-05-21T07:34:12;95473.13;;;18.91;47.95
71621;BME280;59471;42.254;23.102;2023-05-21T07:36:38;95474.50;;;19.10;47.86
71621;BME280;59471;42.254;23.102;2023-05-21T07:39:03;95472.25;;;19.02;48.20
71621;BME280;59471;42.254;23.102;2023-05-21T07:41:29;95469.28;;;19.15;48.41
71621;BME280;59471;42.254;23.102;2023-05-21T07:43:54;95478.72;;;19.23;47.57
71621;BME280;59471;42.254;23.102;2023-05-21T07:46:20;95489.66;;;19.27;47.89
71621;BME280;59471;42.254;23.102;2023-05-21T07:48:46;95485.94;;;19.44;48.36
71621;BME280;59471;42.254;23.102;2023-05-21T07:51:12;95489.03;;;19.53;47.25
71621;BME280;59471;42.254;23.102;2023-05-21T07:53:38;95477.59;;;19.70;46.77
71621;BME280;59471;42.254;23.102;2023-05-21T07:56:04;95487.56;;;19.96;43.58
71621;BME280;59471;42.254;23.102;2023-05-21T07:58:29;95479.53;;;20.13;42.54
71621;BME280;59471;42.254;23.102;2023-05-21T08:00:55;95489.78;;;20.04;43.33
71621;BME280;59471;42.254;23.102;2023-05-21T08:03:21;95490.59;;;20.05;43.92
71621;BME280;59471;42.254;23.102;2023-05-21T08:05:47;95477.06;;;20.06;43.34
71621;BME280;59471;42.254;23.102;2023-05-21T08:08:19;95486.44;;;20.31;41.53
71621;BME280;59471;42.254;23.102;2023-05-21T08:10:46;95478.44;;;20.31;43.03
71621;BME280;59471;42.254;23.102;2023-05-21T08:13:12;95480.41;;;20.19;42.08
71621;BME280;59471;42.254;23.102;2023-05-21T08:15:38;95484.31;;;20.33;44.24
71621;BME280;59471;42.254;23.102;2023-05-21T08:18:04;95478.78;;;20.83;40.83
71621;BME280;59471;42.254;23.102;2023-05-21T08:20:30;95480.31;;;20.74;39.63
71621;BME280;59471;42.254;23.102;2023-05-21T08:22:57;95484.38;;;20.38;40.15
71621;BME280;59471;42.254;23.102;2023-05-21T08:25:25;95478.16;;;20.10;39.68
71621;BME280;59471;42.254;23.102;2023-05-21T08:27:51;95480.78;;;20.05;38.95
71621;BME280;59471;42.254;23.102;2023-05-21T08:30:16;95491.41;;;20.05;39.60
71621;BME280;59471;42.254;23.102;2023-05-21T08:32:42;95484.66;;;19.98;41.20
71621;BME280;59471;42.254;23.102;2023-05-21T08:35:08;95484.34;;;19.94;41.08
71621;BME280;59471;42.254;23.102;2023-05-21T08:37:33;95498.84;;;19.86;41.14
71621;BME280;59471;42.254;23.102;2023-05-21T08:40:00;95490.00;;;19.81;38.38
71621;BME280;59471;42.254;23.102;2023-05-21T08:42:46;95471.63;;;19.62;38.31
71621;BME280;59471;42.254;23.102;2023-05-21T08:45:20;95468.41;;;19.60;38.87
71621;BME280;59471;42.254;23.102;2023-05-21T08:47:54;95462.16;;;19.66;38.41
71621;BME280;59471;42.254;23.102;2023-05-21T08:50:23;95457.41;;;19.68;39.57
71621;BME280;59471;42.254;23.102;2023-05-21T08:52:51;95461.75;;;19.75;39.65
71621;BME280;59471;42.254;23.102;2023-05-21T08:55:17;95468.34;;;20.33;38.88
71621;BME280;59471;42.254;23.102;2023-05-21T08:57:43;95467.31;;;20.78;39.46
71621;BME280;59471;42.254;23.102;2023-05-21T09:00:09;95470.22;;;21.03;38.37
71621;BME280;59471;42.254;23.102;2023-05-21T09:02:37;95478.03;;;21.15;37.87
71621;BME280;59471;42.254;23.102;2023-05-21T09:05:05;95483.13;;;21.17;36.33
71621;BME280;59471;42.254;23.102;2023-05-21T09:07:38;95491.22;;;21.00;36.84
71621;BME280;59471;42.254;23.102;2023-05-21T09:10:11;95495.22;;;21.02;37.27
71621;BME280;59471;42.254;23.102;2023-05-21T09:12:37;95490.00;;;20.86;36.11
71621;BME280;59471;42.254;23.102;2023-05-21T09:15:04;95485.47;;;20.59;37.65
71621;BME280;59471;42.254;23.102;2023-05-21T09:17:31;95499.50;;;20.54;36.78
71621;BME280;59471;42.254;23.102;2023-05-21T09:20:04;95486.63;;;20.46;37.66
71621;BME280;59471;42.254;23.102;2023-05-21T09:22:36;95485.47;;;20.42;36.53
71621;BME280;59471;42.254;23.102;2023-05-21T09:25:05;95489.19;;;20.41;37.18
71621;BME280;59471;42.254;23.102;2023-05-21T09:27:33;95498.56;;;20.44;36.88
71621;BME280;59471;42.254;23.102;2023-05-21T09:30:00;95492.84;;;20.35;37.24
71621;BME280;59471;42.254;23.102;2023-05-21T09:32:27;95488.84;;;20.54;37.93
71621;BME280;59471;42.254;23.102;2023-05-21T09:34:52;95501.84;;;20.73;37.74
71621;BME280;59471;42.254;23.102;2023-05-21T09:37:18;95505.16;;;20.85;36.75
71621;BME280;59471;42.254;23.102;2023-05-21T09:39:46;95494.19;;;21.03;37.42
71621;BME280;59471;42.254;23.102;2023-05-21T09:42:12;95493.72;;;21.39;35.43
71621;BME280;59471;42.254;23.102;2023-05-21T09:44:37;95497.88;;;21.29;37.00
71621;BME280;59471;42.254;23.102;2023-05-21T09:47:04;95484.19;;;21.16;37.77
71621;BME280;59471;42.254;23.102;2023-05-21T09:49:29;95499.72;;;21.29;37.97
71621;BME280;59471;42.254;23.102;2023-05-21T09:51:59;95493.50;;;21.45;38.15
71621;BME280;59471;42.254;23.102;2023-05-21T09:54:25;95489.31;;;21.55;37.48
71621;BME280;59471;42.254;23.102;2023-05-21T09:56:55;95484.22;;;21.48;38.30
71621;BME280;59471;42.254;23.102;2023-05-21T09:59:20;95475.31;;;21.74;36.91
71621;BME280;59471;42.254;23.102;2023-05-21T10:01:49;95473.88;;;21.57;36.43
71621;BME280;59471;42.254;23.102;2023-05-21T10:04:16;95470.66;;;21.92;35.88
71621;BME280;59471;42.254;23.102;2023-05-21T10:06:43;95483.19;;;21.96;35.13
71621;BME280;59471;42.254;23.102;2023-05-21T10:09:14;95491.75;;;21.61;35.29
71621;BME280;59471;42.254;23.102;2023-05-21T10:11:43;95471.53;;;21.33;35.80
71621;BME280;59471;42.254;23.102;2023-05-21T10:14:15;95467.59;;;21.09;36.02
71621;BME280;59471;42.254;23.102;2023-05-21T10:16:47;95465.06;;;21.24;37.47
71621;BME280;59471;42.254;23.102;2023-05-21T10:19:14;95462.69;;;21.27;36.66
71621;BME280;59471;42.254;23.102;2023-05-21T10:21:40;95475.78;;;21.34;35.67
71621;BME280;59471;42.254;23.102;2023-05-21T10:24:08;95469.28;;;21.20;36.04
71621;BME280;59471;42.254;23.102;2023-05-21T10:26:35;95457.75;;;21.09;36.66
71621;BME280;59471;42.254;23.102;2023-05-21T10:29:01;95467.63;;;21.14;36.12
71621;BME280;59471;42.254;23.102;2023-05-21T10:31:27;95470.38;;;21.24;36.25
71621;BME280;59471;42.254;23.102;2023-05-21T10:33:54;95466.69;;;21.25;35.59
71621;BME280;59471;42.254;23.102;2023-05-21T10:36:20;95467.78;;;21.29;35.90
71621;BME280;59471;42.254;23.102;2023-05-21T10:38:47;95462.63;;;21.49;35.96
71621;BME280;59471;42.254;23.102;2023-05-21T10:41:14;95465.19;;;21.71;35.73
71621;BME280;59471;42.254;23.102;2023-05-21T10:52:37;95471.78;;;22.59;35.13
71621;BME280;59471;42.254;23.102;2023-05-21T10:55:41;95458.47;;;22.11;35.97
71621;BME280;59471;42.254;23.102;2023-05-21T10:58:58;95465.91;;;22.57;34.42
71621;BME280;59471;42.254;23.102;2023-05-21T11:01:42;95460.13;;;22.90;35.01
71621;BME280;59471;42.254;23.102;2023-05-21T11:04:09;95469.66;;;22.61;34.63
71621;BME280;59471;42.254;23.102;2023-05-21T11:06:36;95479.13;;;22.31;35.83
71621;BME280;59471;42.254;23.102;2023-05-21T11:09:12;95476.47;;;22.26;35.34
71621;BME280;59471;42.254;23.102;2023-05-21T11:12:03;95471.69;;;22.33;34.68
71621;BME280;59471;42.254;23.102;2023-05-21T11:14:38;95471.16;;;22.36;34.88
71621;BME280;59471;42.254;23.102;2023-05-21T11:19:42;95469.63;;;22.56;35.05
71621;BME280;59471;42.254;23.102;2023-05-21T11:22:27;95470.38;;;22.36;33.80
71621;BME280;59471;42.254;23.102;2023-05-21T11:24:54;95478.47;;;22.04;34.00
71621;BME280;59471;42.254;23.102;2023-05-21T11:27:39;95484.00;;;21.97;33.84
71621;BME280;59471;42.254;23.102;2023-05-21T11:30:07;95481.53;;;21.85;33.77
71621;BME280;59471;42.254;23.102;2023-05-21T11:35:58;95495.44;;;22.35;34.42
71621;BME280;59471;42.254;23.102;2023-05-21T11:38:29;95495.22;;;22.41;35.50
71621;BME280;59471;42.254;23.102;2023-05-21T11:41:02;95487.69;;;22.33;34.48
71621;BME280;59471;42.254;23.102;2023-05-21T11:43:28;95485.44;;;22.15;35.80
71621;BME280;59471;42.254;23.102;2023-05-21T11:45:53;95506.88;;;22.30;35.67
71621;BME280;59471;42.254;23.102;2023-05-21T11:48:25;95515.69;;;22.31;37.13
71621;BME280;59471;42.254;23.102;2023-05-21T11:50:51;95516.97;;;22.18;35.97
71621;BME280;59471;42.254;23.102;2023-05-21T11:53:17;95491.13;;;21.86;37.58
71621;BME280;59471;42.254;23.102;2023-05-21T11:55:42;95503.72;;;21.96;34.00
71621;BME280;59471;42.254;23.102;2023-05-21T11:58:12;95505.84;;;21.94;35.13
71621;BME280;59471;42.254;23.102;2023-05-21T12:00:39;95513.66;;;22.06;36.16
71621;BME280;59471;42.254;23.102;2023-05-21T12:03:04;95516.66;;;21.77;37.00
71621;BME280;59471;42.254;23.102;2023-05-21T12:05:46;95506.00;;;21.77;39.39
71621;BME280;59471;42.254;23.102;2023-05-21T12:08:12;95491.41;;;21.47;41.37
71621;BME280;59471;42.254;23.102;2023-05-21T12:10:37;95510.69;;;21.05;42.15
71621;BME280;59471;42.254;23.102;2023-05-21T12:13:04;95507.00;;;21.06;42.78
71621;BME280;59471;42.254;23.102;2023-05-21T12:15:30;95500.03;;;21.05;43.74
71621;BME280;59471;42.254;23.102;2023-05-21T12:17:56;95494.34;;;20.48;44.19
71621;BME280;59471;42.254;23.102;2023-05-21T12:20:22;95488.94;;;20.87;44.57
71621;BME280;59471;42.254;23.102;2023-05-21T12:22:48;95493.41;;;20.81;43.85
71621;BME280;59471;42.254;23.102;2023-05-21T12:25:17;95500.63;;;20.86;44.32
71621;BME280;59471;42.254;23.102;2023-05-21T12:27:44;95490.19;;;20.79;43.34
71621;BME280;59471;42.254;23.102;2023-05-21T12:30:10;95473.66;;;20.11;43.68
71621;BME280;59471;42.254;23.102;2023-05-21T12:32:39;95479.31;;;20.58;43.43
71621;BME280;59471;42.254;23.102;2023-05-21T12:35:08;95479.38;;;20.42;44.75
71621;BME280;59471;42.254;23.102;2023-05-21T12:37:34;95479.94;;;20.05;46.01
71621;BME280;59471;42.254;23.102;2023-05-21T12:40:01;95479.56;;;20.35;46.81
71621;BME280;59471;42.254;23.102;2023-05-21T12:42:36;95494.78;;;20.62;46.95
71621;BME280;59471;42.254;23.102;2023-05-21T12:45:08;95487.28;;;20.80;45.67
71621;BME280;59471;42.254;23.102;2023-05-21T12:47:34;95497.31;;;20.73;46.89
71621;BME280;59471;42.254;23.102;2023-05-21T12:50:02;95499.41;;;20.93;46.74
71621;BME280;59471;42.254;23.102;2023-05-21T12:52:29;95491.28;;;20.56;47.48
71621;BME280;59471;42.254;23.102;2023-05-21T12:54:58;95486.38;;;20.70;47.78
71621;BME280;59471;42.254;23.102;2023-05-21T12:57:35;95493.63;;;21.01;45.53
71621;BME280;59471;42.254;23.102;2023-05-21T13:00:02;95496.50;;;20.73;46.09
71621;BME280;59471;42.254;23.102;2023-05-21T13:02:33;95488.88;;;21.09;45.65
71621;BME280;59471;42.254;23.102;2023-05-21T13:05:04;95479.53;;;20.79;45.02
71621;BME280;59471;42.254;23.102;2023-05-21T13:07:36;95480.16;;;21.13;44.70
71621;BME280;59471;42.254;23.102;2023-05-21T13:10:04;95477.78;;;21.17;45.88
71621;BME280;59471;42.254;23.102;2023-05-21T13:12:31;95475.56;;;21.68;40.20